Time;durP1;ratioP1;P1;durP2;ratioP2;P2;SDS_P1;SDS_P2;PMS_P1;PMS_P2;Temp;Humidity;BMP_temperature;BMP_pressure;BME280_temperature;BME280_humidity;BME280_pressure;Samples;Min_cycle;Max_cycle;Signal;HPM_P1;HPM_P2
2022/08/15 00:04:12;;;;;;;1.67;0.55;;;19.20;59.50;21.30;93252.00;;;;10435628;28;45264;-65
2022/08/15 00:09:32;;;;;;;1.35;0.65;;;19.10;60.00;21.30;93234.00;;;;10428867;28;45263;-66
2022/08/15 00:14:55;;;;;;;1.48;0.70;;;19.10;59.90;21.30;93207.00;;;;10429730;28;45487;-66
2022/08/15 00:20:17;;;;;;;0.88;0.65;;;19.10;59.80;21.30;93213.00;;;;10428262;28;45124;-65
2022/08/15 00:25:39;;;;;;;1.13;0.68;;;19.10;59.90;21.20;93217.00;;;;10427340;28;45147;-65
2022/08/15 00:31:01;;;;;;;1.05;0.65;;;19.00;59.90;21.20;93213.00;;;;10428484;28;45354;-66
2022/08/15 00:36:22;;;;;;;0.95;0.60;;;19.10;59.70;21.20;93219.00;;;;10427919;28;45503;-65
2022/08/15 00:41:43;;;;;;;1.30;0.80;;;19.10;59.60;21.20;93223.00;;;;10430195;28;45259;-65
2022/08/15 00:47:11;;;;;;;0.80;0.70;;;19.00;59.70;21.20;93236.00;;;;10427702;28;45177;-66
2022/08/15 00:52:33;;;;;;;1.15;0.85;;;19.00;60.10;21.20;93246.00;;;;10427025;28;45232;-65
2022/08/15 00:57:54;;;;;;;1.23;0.70;;;19.00;59.90;21.20;93250.00;;;;10425201;28;45269;-66
2022/08/15 01:03:21;;;;;;;0.85;0.60;;;19.00;59.70;21.20;93259.00;;;;10429742;28;45228;-63
2022/08/15 01:08:45;;;;;;;0.60;0.50;;;18.90;59.60;21.10;93258.00;;;;10434044;28;45150;-65
2022/08/15 01:14:07;;;;;;;1.05;0.88;;;18.90;59.10;21.10;93257.00;;;;10433901;28;45198;-65
2022/08/15 01:19:34;;;;;;;0.55;0.50;;;18.90;58.70;21.10;93266.00;;;;10434310;28;45073;-65
2022/08/15 01:25:02;;;;;;;0.90;0.60;;;18.90;57.90;21.10;93249.00;;;;10433992;28;45156;-65
2022/08/15 01:30:27;;;;;;;0.73;0.40;;;18.90;57.50;21.10;93241.00;;;;10434187;28;45209;-66
2022/08/15 01:35:49;;;;;;;0.80;0.50;;;19.00;57.40;21.00;93250.00;;;;10433329;28;45174;-64
2022/08/15 01:41:21;;;;;;;0.60;0.50;;;18.90;57.60;21.00;93252.00;;;;10448759;28;45312;-64
2022/08/15 01:46:48;;;;;;;0.80;0.50;;;18.80;57.60;21.00;93229.00;;;;10433559;28;45209;-65
2022/08/15 01:52:09;;;;;;;0.75;0.40;;;18.80;57.60;21.00;93243.00;;;;10433182;28;45465;-66
2022/08/15 01:57:32;;;;;;;0.70;0.50;;;18.80;57.70;21.00;93238.00;;;;10432054;28;45376;-64
2022/08/15 02:02:53;;;;;;;0.73;0.43;;;18.80;57.80;21.00;93242.00;;;;10433422;28;45535;-64
2022/08/15 02:08:14;;;;;;;0.50;0.50;;;18.80;57.70;21.00;93245.00;;;;10432304;28;45228;-65
2022/08/15 02:13:36;;;;;;;1.05;0.50;;;18.80;58.70;20.90;93236.00;;;;10432336;28;45039;-65
2022/08/15 02:18:59;;;;;;;0.63;0.50;;;18.70;58.40;20.90;93222.00;;;;10444846;28;45128;-64
2022/08/15 02:24:24;;;;;;;0.50;0.50;;;18.70;58.50;20.90;93210.00;;;;10431934;28;45176;-65
2022/08/15 02:29:46;;;;;;;0.85;0.57;;;18.70;58.60;20.90;93220.00;;;;10431997;28;45201;-66
2022/08/15 02:35:10;;;;;;;0.82;0.52;;;18.70;58.60;20.80;93226.00;;;;10431906;28;45250;-66
2022/08/15 02:40:32;;;;;;;0.90;0.52;;;18.60;58.50;20.80;93209.00;;;;10431459;28;46567;-65
2022/08/15 02:45:54;;;;;;;0.50;0.50;;;18.60;58.40;20.80;93213.00;;;;10430891;28;45319;-65
2022/08/15 02:51:18;;;;;;;0.65;0.50;;;18.60;58.40;20.80;93203.00;;;;10431408;28;45230;-65
2022/08/15 02:56:39;;;;;;;1.10;0.68;;;18.60;58.40;20.70;93199.00;;;;10435588;28;45152;-64
2022/08/15 03:02:01;;;;;;;0.93;0.60;;;18.50;58.30;20.80;93212.00;;;;10431336;28;45265;-65
2022/08/15 03:07:22;;;;;;;1.85;0.60;;;18.60;58.10;20.80;93219.00;;;;10430203;28;45201;-65
2022/08/15 03:12:53;;;;;;;1.25;0.70;;;18.60;58.10;20.70;93224.00;;;;10431037;28;45218;-65
2022/08/15 03:18:15;;;;;;;1.10;0.65;;;18.50;58.00;20.70;93233.00;;;;10443396;28;45449;-64
2022/08/15 03:23:36;;;;;;;1.23;0.52;;;18.60;58.00;20.70;93240.00;;;;10428834;28;45213;-65
2022/08/15 03:28:57;;;;;;;0.98;0.70;;;18.50;57.70;20.70;93237.00;;;;10430363;28;45234;-65
2022/08/15 03:34:22;;;;;;;1.20;0.70;;;18.50;57.90;20.70;93241.00;;;;10430209;28;45549;-64
2022/08/15 03:39:43;;;;;;;1.43;0.60;;;18.50;57.80;20.60;93242.00;;;;10430019;28;45188;-65
2022/08/15 03:45:09;;;;;;;1.35;0.70;;;18.40;57.80;20.60;93249.00;;;;10429195;28;45280;-65
2022/08/15 03:50:32;;;;;;;1.47;0.70;;;18.40;57.80;20.60;93249.00;;;;10429024;28;45296;-65
2022/08/15 03:55:53;;;;;;;1.27;0.80;;;18.40;57.90;20.50;93254.00;;;;10428861;28;45212;-65
2022/08/15 04:01:17;;;;;;;1.35;0.95;;;18.40;58.00;20.60;93261.00;;;;10429081;28;45310;-65
2022/08/15 04:06:40;;;;;;;1.33;0.70;;;18.40;58.10;20.60;93264.00;;;;10428286;28;45190;-65
2022/08/15 04:12:01;;;;;;;1.58;0.90;;;18.40;58.10;20.60;93265.00;;;;10428345;28;45411;-65
2022/08/15 04:17:21;;;;;;;0.80;0.60;;;18.40;58.10;20.60;93258.00;;;;10435979;28;45976;-64
2022/08/15 04:22:49;;;;;;;1.00;0.65;;;18.40;58.00;20.50;93246.00;;;;10422366;28;45173;-65
2022/08/15 04:28:14;;;;;;;1.33;0.80;;;18.40;58.00;20.60;93249.00;;;;10427620;28;45296;-64
2022/08/15 04:33:35;;;;;;;1.77;0.80;;;18.40;58.10;20.60;93239.00;;;;10428311;28;45314;-65
2022/08/15 04:38:57;;;;;;;1.30;0.80;;;18.50;57.80;20.60;93249.00;;;;10428718;28;45499;-64
2022/08/15 04:44:18;;;;;;;1.83;0.80;;;18.50;57.70;20.70;93253.00;;;;10428018;28;45143;-65
2022/08/15 04:49:39;;;;;;;1.45;0.80;;;18.50;57.90;20.60;93249.00;;;;10427503;28;45263;-65
2022/08/15 04:55:01;;;;;;;0.90;0.75;;;18.50;58.20;20.60;93239.00;;;;10427452;28;45245;-64
2022/08/15 05:00:25;;;;;;;0.88;0.75;;;18.40;58.30;20.60;93239.00;;;;10426836;28;45200;-65
2022/08/15 05:05:51;;;;;;;1.08;0.68;;;18.40;58.40;20.60;93259.00;;;;10427438;28;45276;-64
2022/08/15 05:11:17;;;;;;;1.55;0.80;;;18.40;58.60;20.60;93254.00;;;;10426379;28;45149;-65
2022/08/15 05:16:37;;;;;;;0.98;0.80;;;18.40;58.80;20.50;93228.00;;;;10434572;28;45174;-64
2022/08/15 05:21:58;;;;;;;1.45;0.70;;;18.40;59.10;20.60;93228.00;;;;10433404;28;45248;-64
2022/08/15 05:27:20;;;;;;;1.92;0.80;;;18.40;59.10;20.60;93217.00;;;;10427044;28;45277;-65
2022/08/15 05:32:41;;;;;;;1.08;0.70;;;18.40;59.10;20.60;93233.00;;;;10426749;28;45212;-64
2022/08/15 05:38:05;;;;;;;1.10;0.70;;;18.40;59.60;20.60;93232.00;;;;10426474;28;45184;-65
2022/08/15 05:43:42;;;;;;;2.17;0.93;;;18.40;59.70;20.60;93235.00;;;;10426282;28;45231;-64
2022/08/15 05:49:16;;;;;;;1.13;0.77;;;18.40;59.70;20.60;93205.00;;;;10433577;28;45244;-64
2022/08/15 05:54:58;;;;;;;1.92;0.80;;;18.40;59.90;20.60;93212.00;;;;10423880;28;45213;-65
2022/08/15 06:00:20;;;;;;;1.15;0.85;;;18.40;60.10;20.60;93193.00;;;;10432699;28;45182;-64
2022/08/15 06:05:45;;;;;;;2.47;0.77;;;18.40;60.40;20.60;93209.00;;;;10434036;28;45575;-65
2022/08/15 06:11:13;;;;;;;1.17;0.77;;;18.40;60.20;20.60;93217.00;;;;10432979;28;45217;-65
2022/08/15 06:16:42;;;;;;;0.80;0.77;;;18.40;60.30;20.60;93213.00;;;;10431842;28;45307;-65
2022/08/15 06:22:18;;;;;;;1.42;0.85;;;18.60;59.60;20.60;93222.00;;;;10430404;28;45353;-65
2022/08/15 06:27:57;;;;;;;2.45;0.73;;;18.50;60.10;20.60;93232.00;;;;10428447;28;45236;-65
2022/08/15 06:33:31;;;;;;;1.38;0.80;;;18.50;60.30;20.60;93243.00;;;;10429386;28;45270;-66
2022/08/15 06:39:01;;;;;;;1.45;0.73;;;18.50;60.70;20.60;93239.00;;;;10428858;28;45188;-65
2022/08/15 06:44:23;;;;;;;1.05;0.88;;;18.50;60.50;20.70;93232.00;;;;10428939;28;45193;-65
2022/08/15 06:49:57;;;;;;;1.73;0.88;;;18.50;61.40;20.70;93249.00;;;;10424668;28;45244;-65
2022/08/15 06:55:19;;;;;;;1.85;0.88;;;18.50;61.70;20.70;93229.00;;;;10428510;28;45253;-64
2022/08/15 07:00:45;;;;;;;1.30;0.80;;;18.50;61.50;20.70;93229.00;;;;10432480;28;45520;-64
2022/08/15 07:06:11;;;;;;;1.53;0.90;;;18.60;61.10;20.70;93231.00;;;;10434060;28;45321;-64
2022/08/15 07:11:42;;;;;;;1.08;0.90;;;18.60;60.60;20.80;93229.00;;;;10433247;28;45232;-64
2022/08/15 07:17:12;;;;;;;1.45;0.80;;;18.60;59.80;20.80;93227.00;;;;10431676;28;45264;-64
2022/08/15 07:22:35;;;;;;;1.17;0.90;;;18.70;59.60;20.80;93232.00;;;;10432364;28;45319;-64
2022/08/15 07:27:59;;;;;;;0.95;0.73;;;18.70;59.10;20.80;93223.00;;;;10427015;28;45343;-65
2022/08/15 07:33:35;;;;;;;2.40;0.90;;;18.70;58.80;20.90;93228.00;;;;10428948;28;45131;-65
2022/08/15 07:38:58;;;;;;;0.95;0.70;;;18.80;58.30;20.90;93216.00;;;;10430093;28;45149;-65
2022/08/15 07:44:24;;;;;;;1.70;0.90;;;18.80;58.10;20.90;93224.00;;;;10430305;28;45187;-65
2022/08/15 07:50:01;;;;;;;1.90;0.90;;;18.90;58.20;20.90;93221.00;;;;10429683;28;45266;-65
2022/08/15 07:55:24;;;;;;;1.50;0.80;;;18.80;58.10;20.90;93214.00;;;;10439193;28;45313;-65
2022/08/15 08:00:55;;;;;;;2.95;0.82;;;18.80;58.20;20.90;93211.00;;;;10425185;28;45212;-65
2022/08/15 08:06:29;;;;;;;0.93;0.70;;;18.90;58.50;20.90;93219.00;;;;10426413;28;45241;-65
2022/08/15 08:11:54;;;;;;;1.55;0.55;;;18.90;58.60;20.90;93218.00;;;;10426121;28;45253;-65
2022/08/15 08:17:22;;;;;;;1.60;0.82;;;18.80;58.60;20.90;93198.00;;;;10428325;28;45293;-64
2022/08/15 08:22:51;;;;;;;1.05;0.90;;;18.80;58.50;20.90;93206.00;;;;10429024;28;45361;-64
2022/08/15 08:28:27;;;;;;;1.00;0.60;;;18.90;58.00;20.80;93196.00;;;;10428416;28;45167;-64
2022/08/15 08:34:11;;;;;;;1.55;0.82;;;18.90;58.00;20.90;93205.00;;;;10426511;28;45155;-64
2022/08/15 08:39:46;;;;;;;0.88;0.70;;;18.90;57.90;20.80;93197.00;;;;10426332;28;45311;-66
2022/08/15 08:45:13;;;;;;;0.82;0.70;;;18.90;58.10;20.80;93185.00;;;;10426867;28;45218;-63
2022/08/15 08:50:44;;;;;;;1.20;0.82;;;18.90;58.00;20.90;93206.00;;;;10426018;28;45131;-64
2022/08/15 08:56:13;;;;;;;2.03;0.98;;;18.90;58.10;20.90;93204.00;;;;10427455;28;45449;-64
2022/08/15 09:01:38;;;;;;;1.50;0.90;;;18.80;58.20;20.90;93196.00;;;;10427599;28;45301;-65
2022/08/15 09:07:00;;;;;;;0.95;0.70;;;18.80;58.20;20.90;93205.00;;;;10427316;28;45126;-64
2022/08/15 09:18:11;;;;;;;1.55;0.82;;;18.90;58.30;20.90;93205.00;;;;10426664;28;45200;-64
2022/08/15 09:23:37;;;;;;;1.50;1.00;;;18.90;58.40;21.00;93200.00;;;;10432786;28;45231;-64
2022/08/15 09:29:07;;;;;;;1.85;1.00;;;18.80;57.90;21.00;93180.00;;;;10432069;28;44672;-65
2022/08/15 09:35:12;;;;;;;8.23;2.75;;;18.90;57.60;21.10;93193.00;;;;10435665;28;45210;-64
2022/08/15 09:41:20;;;;;;;11.35;4.18;;;18.90;57.50;21.10;93188.00;;;;10426552;28;46094;-64
2022/08/15 09:47:13;;;;;;;11.00;4.10;;;19.00;57.40;21.10;93188.00;;;;10432438;28;45346;-64
2022/08/15 09:52:48;;;;;;;10.52;4.18;;;19.00;57.40;21.10;93184.00;;;;10433349;28;45213;-64
2022/08/15 09:58:20;;;;;;;9.00;3.72;;;19.00;57.40;21.10;93179.00;;;;10432618;28;45157;-64
2022/08/15 10:04:02;;;;;;;7.00;2.78;;;19.00;57.40;21.10;93165.00;;;;10432545;28;45343;-64
2022/08/15 10:09:34;;;;;;;6.20;2.70;;;19.00;57.40;21.20;93181.00;;;;10431204;28;45270;-65
2022/08/15 10:15:07;;;;;;;6.85;2.55;;;19.10;57.40;21.20;93167.00;;;;10431459;28;45599;-65
2022/08/15 10:20:54;;;;;;;5.20;2.28;;;19.10;57.20;21.20;93155.00;;;;10429839;28;45281;-64
2022/08/15 10:26:27;;;;;;;5.30;2.15;;;19.10;57.20;21.20;93139.00;;;;10431148;28;45230;-65
2022/08/15 10:31:54;;;;;;;5.15;2.05;;;19.10;57.00;21.20;93145.00;;;;10420752;28;45198;-65
2022/08/15 10:37:23;;;;;;;5.40;2.10;;;19.10;57.60;21.30;93129.00;;;;10443104;28;45270;-64
2022/08/15 10:43:00;;;;;;;3.42;1.75;;;19.20;56.90;21.30;93119.00;;;;10432220;28;45307;-64
2022/08/15 10:48:43;;;;;;;4.50;1.63;;;19.20;56.70;21.30;93129.00;;;;10431526;28;45196;-64
2022/08/15 10:54:23;;;;;;;3.80;1.65;;;19.20;56.60;21.30;93122.00;;;;10428289;28;45225;-64
2022/08/15 10:59:49;;;;;;;3.25;1.67;;;19.20;56.50;21.30;93098.00;;;;10427502;28;45231;-65
2022/08/15 11:05:14;;;;;;;3.60;1.67;;;19.20;56.50;21.30;93107.00;;;;10430962;28;45464;-64
2022/08/15 11:10:36;;;;;;;5.78;1.67;;;19.20;56.40;21.30;93097.00;;;;10430207;28;45227;-64
2022/08/15 11:16:09;;;;;;;4.72;1.45;;;19.20;56.30;21.30;93098.00;;;;10429603;28;45130;-64
2022/08/15 11:21:38;;;;;;;2.80;1.42;;;19.20;56.30;21.30;93078.00;;;;10430561;28;45186;-64
2022/08/15 11:27:14;;;;;;;4.03;1.60;;;19.20;56.20;21.40;93090.00;;;;10430331;28;45186;-65
2022/08/15 11:32:39;;;;;;;2.65;1.48;;;19.20;56.20;21.40;93080.00;;;;10437665;28;45202;-64
2022/08/15 11:38:02;;;;;;;2.53;1.20;;;19.20;56.10;21.40;93078.00;;;;10432751;28;45173;-65
2022/08/15 11:43:24;;;;;;;1.85;1.08;;;19.20;56.00;21.40;93067.00;;;;10428904;28;45261;-64
2022/08/15 11:48:51;;;;;;;2.88;1.40;;;19.20;55.90;21.40;93077.00;;;;10429844;28;45235;-64
2022/08/15 11:54:23;;;;;;;1.55;1.20;;;19.30;55.90;21.40;93074.00;;;;10416847;28;45580;-64
2022/08/15 12:00:05;;;;;;;3.25;1.10;;;19.30;55.70;21.40;93062.00;;;;10428991;28;45361;-65
2022/08/15 12:05:34;;;;;;;1.42;1.05;;;19.30;55.50;21.40;93082.00;;;;10426987;28;44739;-65
2022/08/15 12:11:04;;;;;;;3.05;1.10;;;19.30;55.40;21.40;93154.00;;;;10428297;28;45243;-64
2022/08/15 12:16:27;;;;;;;1.67;0.90;;;19.30;55.40;21.40;93117.00;;;;10428255;28;45204;-64
2022/08/15 12:21:51;;;;;;;3.78;1.40;;;19.30;55.00;21.40;93198.00;;;;10428084;28;45219;-59
2022/08/15 12:27:13;;;;;;;3.60;1.13;;;19.30;55.20;21.40;93187.00;;;;10426054;28;45208;-59
2022/08/15 12:32:33;;;;;;;2.83;1.13;;;19.20;54.90;21.30;93188.00;;;;10425972;28;45331;-58
2022/08/15 12:37:55;;;;;;;2.38;0.90;;;19.20;55.90;21.20;93200.00;;;;10426778;28;45229;-59
2022/08/15 12:43:16;;;;;;;2.42;0.88;;;19.10;57.50;21.20;93217.00;;;;10426998;28;45292;-58
2022/08/15 12:48:39;;;;;;;1.48;0.80;;;19.10;58.00;21.10;93237.00;;;;10423788;28;45198;-59
2022/08/15 12:54:01;;;;;;;1.25;0.60;;;19.00;57.80;21.10;93221.00;;;;10425854;28;45179;-59
2022/08/15 12:59:21;;;;;;;1.70;0.60;;;18.90;57.70;21.00;93188.00;;;;10430009;28;45407;-59
2022/08/15 13:04:50;;;;;;;1.33;0.57;;;18.90;57.70;20.80;93182.00;;;;10433017;28;45280;-59
2022/08/15 13:10:17;;;;;;;1.02;0.50;;;18.80;57.00;20.80;93139.00;;;;10434701;28;45220;-60
2022/08/15 13:15:38;;;;;;;0.77;0.60;;;18.70;56.80;20.70;93156.00;;;;10433906;28;45091;-59
2022/08/15 13:26:43;;;;;;;1.48;0.50;;;18.60;56.80;20.70;93123.00;;;;10430636;28;45387;-61
2022/08/15 13:32:06;;;;;;;0.88;0.45;;;18.60;56.40;20.70;93107.00;;;;10437306;28;45247;-59
2022/08/15 13:37:29;;;;;;;0.50;0.50;;;18.60;56.10;20.70;93102.00;;;;10441796;28;45234;-60
2022/08/15 13:42:52;;;;;;;0.93;0.60;;;18.60;55.90;20.80;93131.00;;;;10432865;28;45165;-59
2022/08/15 13:48:19;;;;;;;0.52;0.50;;;18.60;56.20;20.80;93145.00;;;;10426947;28;45451;-60
2022/08/15 13:53:41;;;;;;;1.92;0.65;;;18.60;56.10;20.90;93128.00;;;;10431870;28;45165;-60
2022/08/15 13:59:06;;;;;;;8.10;2.38;;;18.70;56.10;20.90;93087.00;;;;10434170;28;45282;-61
2022/08/15 14:04:30;;;;;;;6.35;1.50;;;18.80;56.40;20.90;93081.00;;;;10435725;28;45507;-60
2022/08/15 14:09:51;;;;;;;2.08;0.80;;;18.70;56.40;20.90;93088.00;;;;10435098;28;45152;-59
2022/08/15 14:15:15;;;;;;;1.05;0.60;;;18.80;57.30;20.90;93110.00;;;;10434758;28;45530;-60
2022/08/15 14:20:37;;;;;;;0.85;0.52;;;18.80;58.00;20.90;93133.00;;;;10435082;28;45193;-60
2022/08/15 14:25:58;;;;;;;0.88;0.63;;;18.80;58.10;20.90;93127.00;;;;10433578;28;45146;-59
2022/08/15 14:31:20;;;;;;;1.50;0.75;;;18.80;58.30;21.00;93118.00;;;;10435116;28;45298;-59
2022/08/15 14:36:42;;;;;;;0.82;0.70;;;18.80;58.70;21.00;93123.00;;;;10437137;28;45211;-61
2022/08/15 14:42:03;;;;;;;1.27;0.90;;;18.90;58.50;21.00;93110.00;;;;10434644;28;45473;-60
2022/08/15 14:47:25;;;;;;;2.90;0.90;;;18.90;57.90;21.00;93112.00;;;;10435426;28;45298;-63
2022/08/15 14:52:46;;;;;;;1.88;0.88;;;18.90;57.80;20.90;93097.00;;;;10437897;28;45232;-64
2022/08/15 14:58:07;;;;;;;0.90;0.65;;;18.90;58.00;21.00;93088.00;;;;10436527;28;45530;-64
2022/08/15 15:03:29;;;;;;;1.58;0.90;;;19.00;58.40;21.00;93086.00;;;;10436226;28;45191;-64
2022/08/15 15:08:52;;;;;;;0.85;0.70;;;19.00;58.30;21.00;93096.00;;;;10436131;28;45213;-64
2022/08/15 15:14:13;;;;;;;1.95;0.95;;;19.00;58.00;21.00;93153.00;;;;10430287;28;45220;-64
2022/08/15 15:19:38;;;;;;;3.50;1.00;;;19.00;57.90;21.10;93162.00;;;;10432400;28;45294;-63
2022/08/15 15:24:59;;;;;;;1.73;0.95;;;19.00;57.90;21.10;93170.00;;;;10434896;28;45139;-64
2022/08/15 15:30:19;;;;;;;1.35;0.90;;;19.00;57.90;21.10;93159.00;;;;10436059;28;45211;-65
2022/08/15 15:35:41;;;;;;;1.70;0.90;;;19.00;58.00;21.10;93184.00;;;;10453415;28;45131;-64
2022/08/15 15:41:02;;;;;;;2.67;1.10;;;19.00;58.30;21.10;93213.00;;;;10430661;28;45606;-64
2022/08/15 15:46:23;;;;;;;1.50;0.98;;;19.00;58.40;21.10;93222.00;;;;10424218;28;45321;-64
2022/08/15 15:51:45;;;;;;;1.10;0.90;;;19.00;58.80;21.10;93234.00;;;;10427958;28;45308;-64
2022/08/15 15:57:06;;;;;;;1.65;1.05;;;19.00;59.00;21.10;93233.00;;;;10427919;28;45230;-64
2022/08/15 16:02:28;;;;;;;1.20;1.00;;;19.00;59.40;21.10;93230.00;;;;10426564;28;45211;-64
2022/08/15 16:07:51;;;;;;;1.98;1.10;;;19.10;59.70;21.10;93244.00;;;;10425342;28;45295;-64
2022/08/15 16:13:18;;;;;;;1.45;1.05;;;19.10;59.60;21.20;93238.00;;;;10425115;28;45326;-64
2022/08/15 16:18:45;;;;;;;2.33;1.10;;;19.10;60.10;21.20;93242.00;;;;10426374;28;45254;-64
2022/08/15 16:24:17;;;;;;;2.25;1.23;;;19.10;60.30;21.10;93231.00;;;;10427844;28;45360;-64
2022/08/15 16:29:45;;;;;;;1.85;1.10;;;19.10;60.20;21.10;93241.00;;;;10428041;28;45255;-64
2022/08/15 16:35:13;;;;;;;3.08;1.25;;;19.10;60.30;21.10;93243.00;;;;10431531;28;45575;-64
2022/08/15 16:40:40;;;;;;;1.50;1.20;;;19.10;60.70;21.10;93262.00;;;;10425082;28;45296;-63
2022/08/15 16:46:15;;;;;;;2.25;1.10;;;19.10;60.90;21.10;93258.00;;;;10428133;28;45464;-64
2022/08/15 16:51:51;;;;;;;3.08;1.25;;;19.10;60.80;21.10;93258.00;;;;10419955;28;45193;-64
2022/08/15 16:57:22;;;;;;;1.60;1.00;;;19.10;61.30;21.10;93263.00;;;;10428194;28;45501;-64
2022/08/15 17:03:06;;;;;;;1.70;1.17;;;19.10;61.30;21.10;93266.00;;;;10430255;28;45092;-64
2022/08/15 17:08:39;;;;;;;2.35;1.17;;;19.10;61.20;21.10;93252.00;;;;10428831;28;45222;-64
2022/08/15 17:14:15;;;;;;;2.67;1.33;;;19.10;61.10;21.10;93244.00;;;;10423540;28;45258;-64
2022/08/15 17:19:43;;;;;;;2.05;1.25;;;19.10;61.00;21.20;93255.00;;;;10426667;28;45275;-64
2022/08/15 17:25:18;;;;;;;1.77;1.25;;;19.10;61.00;21.20;93273.00;;;;10426229;28;45520;-64
2022/08/15 17:30:47;;;;;;;1.40;1.30;;;19.00;61.20;21.10;93283.00;;;;10427028;28;45193;-64
2022/08/15 17:36:09;;;;;;;2.97;1.45;;;19.00;61.20;21.10;93284.00;;;;10443615;28;45209;-64
2022/08/15 17:41:36;;;;;;;2.45;1.40;;;19.00;60.80;21.10;93281.00;;;;10428034;28;45174;-64
2022/08/15 17:47:03;;;;;;;;;;;19.10;60.60;21.10;93290.00;;;;10433920;28;45248;-63
2022/08/15 17:52:28;;;;;;;2.83;1.30;;;19.10;60.40;21.10;93300.00;;;;10434608;28;45172;-64
2022/08/15 17:57:55;;;;;;;2.40;1.05;;;19.00;60.10;21.10;93295.00;;;;10432602;28;45280;-64
2022/08/15 18:03:18;;;;;;;;;;;19.00;60.10;21.10;93303.00;;;;10434960;28;45492;-64
2022/08/15 18:08:46;;;;;;;1.88;1.20;;;19.00;60.30;21.10;93308.00;;;;10439485;28;45334;-64
2022/08/15 18:14:11;;;;;;;2.70;1.55;;;19.00;60.50;21.10;93305.00;;;;10439374;28;45177;-64
2022/08/15 18:19:36;;;;;;;1.90;1.25;;;19.10;60.50;21.10;93312.00;;;;10439397;28;45206;-64
2022/08/15 18:25:00;;;;;;;2.30;1.50;;;19.00;60.40;21.10;93302.00;;;;10425231;28;45379;-64
2022/08/15 18:30:36;;;;;;;1.58;1.17;;;19.10;60.50;21.10;93308.00;;;;10435234;28;45118;-64
2022/08/15 18:36:04;;;;;;;2.35;1.30;;;19.10;60.80;21.10;93312.00;;;;10447541;28;45331;-65
2022/08/15 18:41:30;;;;;;;2.35;1.30;;;19.00;61.00;21.10;93330.00;;;;10435016;28;45212;-65
2022/08/15 18:47:02;;;;;;;2.90;1.30;;;19.00;61.40;21.10;93335.00;;;;10436896;28;45211;-65
2022/08/15 18:52:30;;;;;;;2.50;1.50;;;19.00;61.40;21.10;93338.00;;;;10438385;28;45519;-65
2022/08/15 18:57:52;;;;;;;2.08;1.40;;;19.00;61.40;21.10;93327.00;;;;10436438;28;45360;-65
2022/08/15 19:03:19;;;;;;;2.20;1.40;;;19.00;61.60;21.10;93331.00;;;;10432662;28;45117;-65
2022/08/15 19:08:45;;;;;;;2.30;1.38;;;19.00;61.50;21.10;93348.00;;;;10436429;28;45295;-64
2022/08/15 19:14:17;;;;;;;2.63;1.55;;;19.00;61.60;21.10;93349.00;;;;10450275;28;45200;-64
2022/08/15 19:19:48;;;;;;;2.75;1.30;;;18.90;61.80;21.00;93340.00;;;;10434356;28;45565;-64
2022/08/15 19:25:10;;;;;;;1.92;1.23;;;18.90;62.00;21.00;93345.00;;;;10431481;28;45300;-64
2022/08/15 19:30:42;;;;;;;2.05;1.50;;;18.90;62.20;21.00;93364.00;;;;10433667;28;45162;-63
2022/08/15 19:36:18;;;;;;;1.90;1.30;;;18.90;61.90;21.10;93349.00;;;;10435851;28;45191;-64
2022/08/15 19:41:49;;;;;;;2.47;1.23;;;18.90;61.80;21.00;93341.00;;;;10435237;28;45271;-66
2022/08/15 19:47:21;;;;;;;2.55;1.40;;;18.90;61.90;21.00;93341.00;;;;10435099;28;45296;-64
2022/08/15 19:52:56;;;;;;;2.20;1.20;;;18.80;62.10;21.00;93350.00;;;;10423409;28;45186;-64
2022/08/15 19:58:38;;;;;;;2.67;1.42;;;18.80;62.10;21.00;93358.00;;;;10431973;28;45164;-63
2022/08/15 20:04:17;;;;;;;2.17;1.50;;;18.80;62.10;20.90;93365.00;;;;10418942;28;45256;-65
2022/08/15 20:09:53;;;;;;;3.08;1.40;;;18.80;62.20;20.90;93362.00;;;;10436740;28;45422;-66
2022/08/15 20:15:29;;;;;;;3.42;1.45;;;18.80;62.30;20.90;93355.00;;;;10451737;28;45166;-65
2022/08/15 20:21:01;;;;;;;2.22;1.40;;;18.80;62.30;20.90;93362.00;;;;10436051;28;45197;-64
2022/08/15 20:26:30;;;;;;;2.65;1.40;;;18.80;62.20;20.90;93368.00;;;;10434365;28;45196;-65
2022/08/15 20:32:00;;;;;;;2.67;1.20;;;18.80;62.10;20.90;93371.00;;;;10426344;28;45137;-63
2022/08/15 20:37:27;;;;;;;3.25;1.50;;;18.70;62.10;20.90;93397.00;;;;10435574;28;45210;-64
2022/08/15 20:42:57;;;;;;;2.40;1.48;;;18.80;62.60;20.90;93413.00;;;;10422563;28;45230;-63
2022/08/15 20:48:26;;;;;;;2.75;1.58;;;18.70;62.80;20.80;93416.00;;;;10434964;28;45359;-63
2022/08/15 20:53:47;;;;;;;3.22;1.50;;;18.70;63.30;20.90;93420.00;;;;10434837;28;45496;-63
2022/08/15 20:59:13;;;;;;;2.28;1.40;;;18.70;63.60;20.90;93427.00;;;;10421904;28;45306;-63
2022/08/15 21:04:35;;;;;;;3.22;1.50;;;18.70;64.00;20.90;93424.00;;;;10434030;28;45159;-64
2022/08/15 21:10:03;;;;;;;2.60;1.30;;;18.70;64.60;20.90;93412.00;;;;10434148;28;45191;-64
2022/08/15 21:15:36;;;;;;;2.28;1.50;;;18.70;64.80;20.90;93411.00;;;;10448638;28;45244;-64
2022/08/15 21:21:09;;;;;;;2.30;1.50;;;18.70;66.20;20.80;93415.00;;;;10442008;28;45191;-64
2022/08/15 21:26:36;;;;;;;2.33;1.60;;;18.70;65.40;20.80;93425.00;;;;10440558;28;45320;-67
2022/08/15 21:32:31;;;;;;;3.17;1.60;;;18.70;65.70;20.80;93434.00;;;;10441249;28;45349;-63
2022/08/15 21:37:53;;;;;;;3.55;1.75;;;18.70;65.80;20.80;93432.00;;;;10441297;28;45271;-64
2022/08/15 21:43:57;;;;;;;3.63;1.52;;;18.70;66.00;20.80;93432.00;;;;10441539;28;45317;-64
2022/08/15 21:50:29;;;;;;;3.45;1.80;;;18.70;66.20;20.80;93440.00;;;;10427457;28;45220;-64
2022/08/15 21:55:51;;;;;;;2.45;1.60;;;18.70;66.10;20.80;93442.00;;;;10425585;28;45146;-64
2022/08/15 22:01:30;;;;;;;1.90;1.45;;;18.70;66.10;20.80;93441.00;;;;10439540;28;45284;-63
2022/08/15 22:06:51;;;;;;;2.58;1.77;;;18.60;65.80;20.80;93442.00;;;;10439851;28;45169;-63
2022/08/15 22:12:30;;;;;;;2.45;1.50;;;18.60;65.90;20.80;93433.00;;;;10436692;28;45119;-63
2022/08/15 22:17:52;;;;;;;2.30;1.70;;;18.60;65.90;20.80;93431.00;;;;10446111;28;45192;-64
2022/08/15 22:23:14;;;;;;;3.15;2.03;;;18.60;66.10;20.80;93431.00;;;;10438909;28;45128;-65
2022/08/15 22:28:36;;;;;;;2.03;1.50;;;18.60;65.90;20.80;93437.00;;;;10438969;28;45133;-63
2022/08/15 22:33:57;;;;;;;2.80;1.70;;;18.60;65.90;20.80;93434.00;;;;10439322;28;45289;-64
2022/08/15 22:39:19;;;;;;;2.47;1.73;;;18.60;66.10;20.70;93448.00;;;;10439055;28;45300;-63
2022/08/15 22:44:42;;;;;;;2.28;1.50;;;18.60;66.00;20.70;93449.00;;;;10427904;28;45252;-63
2022/08/15 22:50:06;;;;;;;1.70;1.40;;;18.60;65.90;20.70;93448.00;;;;10438963;28;45237;-64
2022/08/15 22:55:31;;;;;;;2.40;1.38;;;18.60;65.80;20.70;93449.00;;;;10437770;28;45260;-63
2022/08/15 23:00:54;;;;;;;2.20;1.45;;;18.50;65.90;20.70;93431.00;;;;10426959;28;45311;-64
2022/08/15 23:06:24;;;;;;;3.33;1.60;;;18.60;66.00;20.70;93444.00;;;;10437878;28;45270;-63
2022/08/15 23:11:47;;;;;;;2.97;1.58;;;18.50;65.70;20.70;93428.00;;;;10440119;28;45323;-63
2022/08/15 23:17:14;;;;;;;3.13;1.40;;;18.50;65.80;20.70;93437.00;;;;10454795;28;45246;-63
2022/08/15 23:22:36;;;;;;;3.13;1.40;;;18.50;65.70;20.70;93433.00;;;;10437484;28;45162;-64
2022/08/15 23:27:57;;;;;;;1.67;1.35;;;18.50;65.50;20.70;93432.00;;;;10436442;28;45245;-64
2022/08/15 23:33:19;;;;;;;1.88;1.40;;;18.50;65.30;20.70;93422.00;;;;10426217;28;45201;-66
2022/08/15 23:38:40;;;;;;;2.97;1.60;;;18.50;65.00;20.60;93407.00;;;;10436383;28;45224;-64
2022/08/15 23:44:01;;;;;;;2.30;1.50;;;18.50;64.70;20.60;93402.00;;;;10437032;28;45117;-64
2022/08/15 23:49:23;;;;;;;2.53;1.67;;;18.40;64.60;20.60;93409.00;;;;10423860;28;45306;-63
2022/08/15 23:54:43;;;;;;;2.38;1.42;;;18.40;64.50;20.60;93410.00;;;;10436160;28;45112;-64
